createdAt,value
2016-09-03T00:00:08.119Z,20.3
2016-09-03T00:00:18.115Z,20.2
2016-09-03T00:00:28.111Z,20.2
2016-09-03T00:00:38.105Z,20.2
2016-09-03T00:00:48.101Z,20.2
2016-09-03T00:00:58.100Z,20.3
2016-09-03T00:01:08.094Z,20.2
2016-09-03T00:01:18.088Z,20.2
2016-09-03T00:01:28.083Z,20.1
2016-09-03T00:01:38.080Z,20.2
2016-09-03T00:01:48.078Z,20.2
2016-09-03T00:01:58.070Z,20.2
2016-09-03T00:02:08.066Z,20.3
2016-09-03T00:02:18.069Z,20.2
2016-09-03T00:02:28.057Z,20.2
2016-09-03T00:02:38.053Z,20.2
2016-09-03T00:02:48.049Z,20.3
2016-09-03T00:02:58.044Z,20.2
2016-09-03T00:03:08.040Z,20.2
2016-09-03T00:03:18.035Z,20.2
2016-09-03T00:03:28.030Z,20.1
2016-09-03T00:03:38.026Z,20.2
2016-09-03T00:03:48.022Z,20.1
2016-09-03T00:03:58.017Z,20.1
2016-09-03T00:04:08.013Z,20.2
2016-09-03T00:04:18.010Z,20.1
2016-09-03T00:04:28.004Z,20.1
2016-09-03T00:04:38.000Z,20.1
2016-09-03T00:04:47.997Z,20.1
2016-09-03T00:04:57.990Z,20.1
2016-09-03T00:05:07.987Z,20.1
2016-09-03T00:05:17.982Z,20.1
2016-09-03T00:05:27.977Z,20.2
2016-09-03T00:05:37.973Z,20.1
2016-09-03T00:05:47.969Z,20.1
2016-09-03T00:05:57.965Z,20.2
2016-09-03T00:06:07.960Z,20.1
2016-09-03T00:06:17.955Z,20.1
2016-09-03T00:06:27.951Z,20.1
2016-09-03T00:06:37.947Z,20.1
2016-09-03T00:06:47.942Z,20.2
2016-09-03T00:06:57.938Z,20
2016-09-03T00:07:07.933Z,20.1
2016-09-03T00:07:17.928Z,20.1
2016-09-03T00:07:27.925Z,20.1
2016-09-03T00:07:37.919Z,20.1
2016-09-03T00:07:47.916Z,20.1
2016-09-03T00:07:57.911Z,20.1
2016-09-03T00:08:07.906Z,20.1
2016-09-03T00:08:17.902Z,20.1
2016-09-03T00:08:27.898Z,20.1
2016-09-03T00:08:37.892Z,20.1
2016-09-03T00:08:47.890Z,20.1
2016-09-03T00:08:57.884Z,20
2016-09-03T00:09:07.880Z,20.1
2016-09-03T00:09:17.876Z,20.1
2016-09-03T00:09:27.870Z,20.2
2016-09-03T00:09:37.867Z,20.1
2016-09-03T00:09:47.862Z,20
2016-09-03T00:09:57.858Z,20
2016-09-03T00:10:07.855Z,20.1
2016-09-03T00:10:17.848Z,20.1
2016-09-03T00:10:27.845Z,20.1
2016-09-03T00:10:37.840Z,20.1
2016-09-03T00:10:47.834Z,20.1
2016-09-03T00:10:57.832Z,20.2
2016-09-03T00:11:07.826Z,20
2016-09-03T00:11:17.825Z,20
2016-09-03T00:11:27.817Z,20
2016-09-03T00:11:37.813Z,20
2016-09-03T00:11:47.812Z,20.1
2016-09-03T00:11:57.803Z,20.1
2016-09-03T00:12:07.800Z,20.1
2016-09-03T00:12:17.795Z,20.1
2016-09-03T00:12:27.790Z,20.1
2016-09-03T00:12:37.787Z,20.1
2016-09-03T00:12:47.782Z,20.1
2016-09-03T00:12:57.777Z,20
2016-09-03T00:13:07.773Z,20
2016-09-03T00:13:17.768Z,20
2016-09-03T00:13:27.763Z,20.1
2016-09-03T00:13:37.760Z,20
2016-09-03T00:13:47.755Z,20.1
2016-09-03T00:13:57.751Z,20
2016-09-03T00:14:07.747Z,20
2016-09-03T00:14:17.743Z,20
2016-09-03T00:14:27.737Z,20
2016-09-03T00:14:37.732Z,19.9
2016-09-03T00:14:47.728Z,20
2016-09-03T00:14:57.723Z,20.1
2016-09-03T00:15:07.719Z,20
2016-09-03T00:15:17.713Z,19.9
2016-09-03T00:15:27.710Z,19.9
2016-09-03T00:15:37.705Z,19.9
2016-09-03T00:15:47.701Z,20
2016-09-03T00:15:57.697Z,20
2016-09-03T00:16:07.692Z,19.9
2016-09-03T00:16:17.687Z,20.1
2016-09-03T00:16:27.682Z,20
2016-09-03T00:16:37.678Z,19.9
2016-09-03T00:16:47.674Z,20
2016-09-03T00:16:57.669Z,20
2016-09-03T00:17:07.665Z,20
2016-09-03T00:17:17.659Z,20
2016-09-03T00:17:27.655Z,20
2016-09-03T00:17:37.650Z,20
2016-09-03T00:17:47.646Z,20
2016-09-03T00:17:57.641Z,19.9
2016-09-03T00:18:07.638Z,20
2016-09-03T00:18:17.632Z,20
2016-09-03T00:18:27.628Z,19.9
2016-09-03T00:18:37.622Z,19.9
2016-09-03T00:18:47.619Z,20
2016-09-03T00:18:57.614Z,20.1
2016-09-03T00:19:07.609Z,19.9
2016-09-03T00:19:17.605Z,20
2016-09-03T00:19:27.601Z,19.9
2016-09-03T00:19:37.594Z,19.9
2016-09-03T00:19:47.592Z,19.9
2016-09-03T00:19:57.587Z,20
2016-09-03T00:20:07.583Z,20
2016-09-03T00:20:17.579Z,19.9
2016-09-03T00:20:27.574Z,20
2016-09-03T00:20:37.569Z,19.9
2016-09-03T00:20:47.567Z,19.9
2016-09-03T00:20:57.562Z,19.9
2016-09-03T00:21:07.555Z,19.9
2016-09-03T00:21:17.551Z,19.9
2016-09-03T00:21:27.548Z,19.9
2016-09-03T00:21:37.545Z,19.9
2016-09-03T00:21:47.539Z,19.9
2016-09-03T00:21:57.535Z,19.9
2016-09-03T00:22:07.530Z,19.9
2016-09-03T00:22:17.524Z,19.9
2016-09-03T00:22:27.521Z,19.9
2016-09-03T00:22:37.516Z,19.9
2016-09-03T00:22:47.511Z,20
2016-09-03T00:22:57.509Z,19.9
2016-09-03T00:23:07.503Z,19.9
2016-09-03T00:23:17.498Z,19.9
2016-09-03T00:23:27.493Z,20
2016-09-03T00:23:37.487Z,19.9
2016-09-03T00:23:47.484Z,19.9
2016-09-03T00:23:57.479Z,19.9
2016-09-03T00:24:07.477Z,19.9
2016-09-03T00:24:17.473Z,19.9
2016-09-03T00:24:27.468Z,20
2016-09-03T00:24:37.463Z,19.9
2016-09-03T00:24:47.458Z,19.9
2016-09-03T00:24:57.454Z,19.9
2016-09-03T00:25:07.450Z,19.9
2016-09-03T00:25:17.443Z,19.8
2016-09-03T00:25:27.440Z,19.9
2016-09-03T00:25:37.436Z,19.9
2016-09-03T00:25:47.431Z,19.9
2016-09-03T00:25:57.427Z,19.9
2016-09-03T00:26:07.424Z,19.9
2016-09-03T00:26:17.418Z,19.9
2016-09-03T00:26:27.414Z,19.9
2016-09-03T00:26:37.409Z,19.9
2016-09-03T00:26:47.405Z,19.9
2016-09-03T00:26:57.399Z,19.9
2016-09-03T00:27:07.396Z,20
2016-09-03T00:27:17.393Z,19.9
2016-09-03T00:27:27.386Z,19.9
2016-09-03T00:27:37.380Z,19.9
2016-09-03T00:27:47.376Z,19.9
2016-09-03T00:27:57.372Z,19.8
2016-09-03T00:28:07.367Z,19.8
2016-09-03T00:28:17.363Z,19.9
2016-09-03T00:28:27.358Z,19.9
2016-09-03T00:28:37.357Z,19.9
2016-09-03T00:28:47.351Z,19.9
2016-09-03T00:28:57.345Z,19.8
2016-09-03T00:29:07.342Z,19.9
2016-09-03T00:29:17.337Z,19.9
2016-09-03T00:29:27.342Z,19.8
2016-09-03T00:29:37.328Z,19.8
2016-09-03T00:29:47.322Z,19.8
2016-09-03T00:29:57.319Z,19.9
2016-09-03T00:30:07.314Z,19.8
2016-09-03T00:30:17.311Z,19.8
2016-09-03T00:30:27.304Z,19.9
2016-09-03T00:30:37.301Z,19.8
2016-09-03T00:30:47.299Z,19.8
2016-09-03T00:30:57.294Z,19.8
2016-09-03T00:31:07.288Z,19.8
2016-09-03T00:31:17.285Z,19.8
2016-09-03T00:31:27.280Z,19.8
2016-09-03T00:31:37.273Z,19.8
2016-09-03T00:31:47.271Z,19.8
2016-09-03T00:31:57.265Z,19.8
2016-09-03T00:32:07.260Z,19.8
2016-09-03T00:32:17.262Z,19.8
2016-09-03T00:32:27.252Z,19.8
2016-09-03T00:32:37.251Z,19.8
2016-09-03T00:32:47.243Z,19.8
2016-09-03T00:32:57.238Z,19.8
2016-09-03T00:33:07.234Z,19.8
2016-09-03T00:33:17.228Z,19.8
2016-09-03T00:33:27.226Z,19.8
2016-09-03T00:33:37.221Z,19.8
2016-09-03T00:33:47.216Z,19.7
2016-09-03T00:33:57.212Z,19.7
2016-09-03T00:34:07.207Z,19.8
2016-09-03T00:34:17.202Z,19.8
2016-09-03T00:34:27.196Z,19.8
2016-09-03T00:34:37.192Z,19.8
2016-09-03T00:34:47.188Z,19.8
2016-09-03T00:34:57.184Z,19.8
2016-09-03T00:35:07.180Z,19.7
2016-09-03T00:35:17.175Z,19.7
2016-09-03T00:35:27.172Z,19.8
2016-09-03T00:35:37.165Z,19.8
2016-09-03T00:35:47.163Z,19.7
2016-09-03T00:35:57.157Z,19.8
2016-09-03T00:36:07.153Z,19.7
2016-09-03T00:36:17.148Z,19.7
2016-09-03T00:36:27.144Z,19.7
2016-09-03T00:36:37.140Z,19.7
2016-09-03T00:36:47.135Z,19.7
2016-09-03T00:36:57.131Z,19.7
2016-09-03T00:37:07.126Z,19.7
2016-09-03T00:37:17.121Z,19.7
2016-09-03T00:37:27.117Z,19.7
2016-09-03T00:37:37.114Z,19.7
2016-09-03T00:37:47.109Z,19.7
2016-09-03T00:37:57.103Z,19.8
2016-09-03T00:38:07.100Z,19.7
2016-09-03T00:38:17.095Z,19.6
2016-09-03T00:38:27.091Z,19.7
2016-09-03T00:38:37.086Z,19.8
2016-09-03T00:38:47.082Z,19.8
2016-09-03T00:38:57.077Z,19.7
2016-09-03T00:39:07.072Z,19.7
2016-09-03T00:39:17.067Z,19.8
2016-09-03T00:39:27.063Z,19.7
2016-09-03T00:39:37.058Z,19.6
2016-09-03T00:39:47.054Z,19.7
2016-09-03T00:39:57.048Z,19.7
2016-09-03T00:40:07.045Z,19.8
2016-09-03T00:40:17.040Z,19.8
2016-09-03T00:40:27.036Z,19.8
2016-09-03T00:40:37.031Z,19.7
2016-09-03T00:40:47.027Z,19.8
2016-09-03T00:40:57.021Z,19.6
2016-09-03T00:41:07.018Z,19.7
2016-09-03T00:41:17.015Z,19.6
2016-09-03T00:41:27.009Z,19.7
2016-09-03T00:41:37.004Z,19.7
2016-09-03T00:41:47.000Z,19.8
2016-09-03T00:41:57.000Z,19.7
2016-09-03T00:42:06.992Z,19.7
2016-09-03T00:42:16.987Z,19.7
2016-09-03T00:42:26.982Z,19.8
2016-09-03T00:42:36.977Z,19.7
2016-09-03T00:42:46.974Z,19.7
2016-09-03T00:42:56.969Z,19.7
2016-09-03T00:43:06.966Z,19.7
2016-09-03T00:43:16.960Z,19.7
2016-09-03T00:43:26.956Z,19.7
2016-09-03T00:43:36.951Z,19.8
2016-09-03T00:43:46.947Z,19.7
2016-09-03T00:43:56.942Z,19.8
2016-09-03T00:44:06.938Z,19.8
2016-09-03T00:44:16.933Z,19.8
2016-09-03T00:44:26.928Z,19.7
2016-09-03T00:44:36.924Z,19.7
2016-09-03T00:44:46.918Z,19.7
2016-09-03T00:44:56.914Z,19.7
2016-09-03T00:45:06.910Z,19.7
2016-09-03T00:45:16.905Z,19.6
2016-09-03T00:45:26.901Z,19.7
2016-09-03T00:45:36.901Z,19.8
2016-09-03T00:45:46.891Z,19.8
2016-09-03T00:45:56.888Z,19.8
2016-09-03T00:46:06.884Z,19.7
2016-09-03T00:46:16.879Z,19.7
2016-09-03T00:46:26.874Z,19.6
2016-09-03T00:46:36.869Z,19.8
2016-09-03T00:46:46.865Z,19.8
2016-09-03T00:46:56.860Z,19.7
2016-09-03T00:47:06.855Z,19.7
2016-09-03T00:47:16.851Z,19.7
2016-09-03T00:47:26.847Z,19.7
2016-09-03T00:47:36.843Z,19.6
2016-09-03T00:47:46.839Z,19.7
2016-09-03T00:47:56.833Z,19.6
2016-09-03T00:48:06.830Z,19.7
2016-09-03T00:48:16.826Z,19.6
2016-09-03T00:48:26.819Z,19.6
2016-09-03T00:48:36.816Z,19.6
2016-09-03T00:48:46.810Z,19.6
2016-09-03T00:48:56.806Z,19.7
2016-09-03T00:49:06.800Z,19.7
2016-09-03T00:49:16.799Z,19.6
2016-09-03T00:49:26.793Z,19.7
2016-09-03T00:49:36.788Z,19.6
2016-09-03T00:49:46.784Z,19.6
2016-09-03T00:49:56.780Z,19.7
2016-09-03T00:50:06.776Z,19.6
2016-09-03T00:50:16.771Z,19.6
2016-09-03T00:50:26.766Z,19.6
2016-09-03T00:50:36.761Z,19.6
2016-09-03T00:50:46.755Z,19.6
2016-09-03T00:50:56.753Z,19.6
2016-09-03T00:51:06.748Z,19.6
2016-09-03T00:51:16.745Z,19.7
2016-09-03T00:51:26.739Z,19.7
2016-09-03T00:51:36.734Z,19.6
2016-09-03T00:51:46.729Z,19.5
2016-09-03T00:51:56.726Z,19.6
2016-09-03T00:52:06.719Z,19.6
2016-09-03T00:52:16.716Z,19.6
2016-09-03T00:52:26.713Z,19.6
2016-09-03T00:52:36.708Z,19.5
2016-09-03T00:52:46.703Z,19.6
2016-09-03T00:52:56.698Z,19.5
2016-09-03T00:53:06.695Z,19.6
2016-09-03T00:53:16.690Z,19.5
2016-09-03T00:53:26.685Z,19.6
2016-09-03T00:53:36.682Z,19.6
2016-09-03T00:53:46.676Z,19.6
2016-09-03T00:53:56.673Z,19.6
2016-09-03T00:54:06.669Z,19.5
2016-09-03T00:54:16.662Z,19.6
2016-09-03T00:54:26.657Z,19.6
2016-09-03T00:54:36.653Z,19.6
2016-09-03T00:54:46.649Z,19.5
2016-09-03T00:54:56.645Z,19.5
2016-09-03T00:55:06.640Z,19.5
2016-09-03T00:55:16.636Z,19.5
2016-09-03T00:55:26.631Z,19.5
2016-09-03T00:55:36.626Z,19.5
2016-09-03T00:55:46.622Z,19.6
2016-09-03T00:55:56.617Z,19.5
2016-09-03T00:56:06.614Z,19.6
2016-09-03T00:56:16.608Z,19.5
2016-09-03T00:56:26.609Z,19.5
2016-09-03T00:56:36.599Z,19.5
2016-09-03T00:56:46.595Z,19.5
2016-09-03T00:56:56.592Z,19.4
2016-09-03T00:57:06.586Z,19.5
2016-09-03T00:57:16.581Z,19.4
2016-09-03T00:57:26.577Z,19.5
2016-09-03T00:57:36.573Z,19.4
2016-09-03T00:57:46.568Z,19.5
2016-09-03T00:57:56.564Z,19.4
2016-09-03T00:58:06.559Z,19.5
2016-09-03T00:58:16.554Z,19.5
2016-09-03T00:58:26.549Z,19.5
2016-09-03T00:58:36.544Z,19.6
2016-09-03T00:58:46.541Z,19.5
2016-09-03T00:58:56.537Z,19.5
2016-09-03T00:59:06.531Z,19.5
2016-09-03T00:59:16.529Z,19.5
2016-09-03T00:59:26.525Z,19.5
2016-09-03T00:59:36.518Z,19.5
2016-09-03T00:59:46.514Z,19.5
2016-09-03T00:59:56.509Z,19.6
2016-09-03T01:00:06.505Z,19.5
2016-09-03T01:00:16.500Z,19.5
2016-09-03T01:00:26.495Z,19.5
2016-09-03T01:00:36.493Z,19.5
2016-09-03T01:00:46.487Z,19.5
2016-09-03T01:00:56.482Z,19.5
2016-09-03T01:01:06.478Z,19.5
2016-09-03T01:01:16.472Z,19.5
2016-09-03T01:01:26.469Z,19.6
2016-09-03T01:01:36.465Z,19.5
2016-09-03T01:01:46.460Z,19.5
2016-09-03T01:01:56.455Z,19.5
2016-09-03T01:02:06.452Z,19.6
2016-09-03T01:02:16.446Z,19.5
2016-09-03T01:02:26.441Z,19.5
2016-09-03T01:02:36.436Z,19.5
2016-09-03T01:02:46.433Z,19.5
2016-09-03T01:02:56.428Z,19.5
2016-09-03T01:03:06.423Z,19.6
2016-09-03T01:03:16.420Z,19.5
2016-09-03T01:03:26.415Z,19.6
2016-09-03T01:03:36.409Z,19.5
2016-09-03T01:03:46.406Z,19.5
2016-09-03T01:03:56.401Z,19.4
2016-09-03T01:04:06.398Z,19.5
2016-09-03T01:04:16.392Z,19.4
2016-09-03T01:04:26.387Z,19.5
2016-09-03T01:04:36.383Z,19.5
2016-09-03T01:04:46.385Z,19.5
2016-09-03T01:04:56.374Z,19.5
2016-09-03T01:05:06.370Z,19.5
2016-09-03T01:05:16.365Z,19.5
2016-09-03T01:05:26.360Z,19.5
2016-09-03T01:05:36.355Z,19.5
2016-09-03T01:05:46.351Z,19.5
2016-09-03T01:05:56.345Z,19.5
2016-09-03T01:06:06.342Z,19.5
2016-09-03T01:06:16.338Z,19.5
2016-09-03T01:06:26.334Z,19.5
2016-09-03T01:06:36.329Z,19.5
2016-09-03T01:06:46.325Z,19.5
2016-09-03T01:06:56.320Z,19.5
2016-09-03T01:07:06.317Z,19.5
2016-09-03T01:07:16.311Z,19.5
2016-09-03T01:07:26.307Z,19.6
2016-09-03T01:07:36.301Z,19.5
2016-09-03T01:07:46.297Z,19.5
2016-09-03T01:07:56.292Z,19.5
2016-09-03T01:08:06.290Z,19.6
2016-09-03T01:08:16.284Z,19.5
2016-09-03T01:08:26.278Z,19.4
2016-09-03T01:08:36.273Z,19.5
2016-09-03T01:08:46.271Z,19.5
2016-09-03T01:08:56.266Z,19.6
2016-09-03T01:09:06.262Z,19.5
2016-09-03T01:09:16.256Z,19.6
2016-09-03T01:09:26.252Z,19.6
2016-09-03T01:09:36.248Z,19.5
2016-09-03T01:09:46.245Z,19.6
2016-09-03T01:09:56.240Z,19.5
2016-09-03T01:10:06.235Z,19.5
2016-09-03T01:10:16.229Z,19.5
2016-09-03T01:10:26.225Z,19.5
2016-09-03T01:10:36.220Z,19.5
2016-09-03T01:10:46.215Z,19.5
2016-09-03T01:10:56.212Z,19.5
2016-09-03T01:11:06.207Z,19.5
2016-09-03T01:11:16.203Z,19.6
2016-09-03T01:11:26.198Z,19.6
2016-09-03T01:11:36.193Z,19.6
2016-09-03T01:11:46.189Z,19.5
2016-09-03T01:11:56.183Z,19.5
2016-09-03T01:12:06.179Z,19.5
2016-09-03T01:12:16.175Z,19.5
2016-09-03T01:12:26.170Z,19.5
2016-09-03T01:12:36.167Z,19.6
2016-09-03T01:12:46.162Z,19.5
2016-09-03T01:12:56.158Z,19.5
2016-09-03T01:13:06.153Z,19.5
2016-09-03T01:13:16.148Z,19.6
2016-09-03T01:13:26.144Z,19.5
2016-09-03T01:13:36.141Z,19.6
2016-09-03T01:13:46.134Z,19.5
2016-09-03T01:13:56.130Z,19.6
2016-09-03T01:14:06.127Z,19.5
2016-09-03T01:14:16.121Z,19.5
2016-09-03T01:14:26.118Z,19.5
2016-09-03T01:14:36.112Z,19.5
2016-09-03T01:14:46.109Z,19.5
2016-09-03T01:14:56.103Z,19.6
2016-09-03T01:15:06.098Z,19.5
2016-09-03T01:15:16.094Z,19.5
2016-09-03T01:15:26.089Z,19.6
2016-09-03T01:15:36.083Z,19.6
2016-09-03T01:15:46.079Z,19.5
2016-09-03T01:15:56.075Z,19.6
2016-09-03T01:16:06.070Z,19.5
2016-09-03T01:16:16.065Z,19.5
2016-09-03T01:16:26.063Z,19.6
2016-09-03T01:16:36.058Z,19.5
2016-09-03T01:16:46.053Z,19.5
2016-09-03T01:16:56.048Z,19.5
2016-09-03T01:17:06.044Z,19.6
2016-09-03T01:17:16.040Z,19.6
2016-09-03T01:17:26.035Z,19.6
2016-09-03T01:17:36.031Z,19.5
2016-09-03T01:17:46.026Z,19.5
2016-09-03T01:17:56.022Z,19.5
2016-09-03T01:18:06.018Z,19.6
2016-09-03T01:18:16.014Z,19.5
2016-09-03T01:18:26.007Z,19.5
2016-09-03T01:18:36.002Z,19.5
2016-09-03T01:18:46.005Z,19.5
2016-09-03T01:18:55.995Z,19.5
2016-09-03T01:19:05.990Z,19.5
2016-09-03T01:19:15.985Z,19.6
2016-09-03T01:19:25.982Z,19.5
2016-09-03T01:19:35.976Z,19.5
2016-09-03T01:19:45.972Z,19.5
2016-09-03T01:19:55.967Z,19.6
2016-09-03T01:20:05.964Z,19.6
2016-09-03T01:20:15.958Z,19.6
2016-09-03T01:20:25.953Z,19.6
2016-09-03T01:20:35.951Z,19.6
2016-09-03T01:20:45.945Z,19.6
2016-09-03T01:20:55.940Z,19.5
2016-09-03T01:21:05.936Z,19.6
2016-09-03T01:21:15.931Z,19.5
2016-09-03T01:21:25.926Z,19.6
2016-09-03T01:21:35.922Z,19.5
2016-09-03T01:21:45.917Z,19.6
2016-09-03T01:21:55.913Z,19.5
2016-09-03T01:22:05.908Z,19.5
2016-09-03T01:22:15.904Z,19.6
2016-09-03T01:22:25.901Z,19.5
2016-09-03T01:22:35.895Z,19.6
2016-09-03T01:22:45.890Z,19.6
2016-09-03T01:22:55.886Z,19.5
2016-09-03T01:23:05.880Z,19.6
2016-09-03T01:23:15.878Z,19.5
2016-09-03T01:23:25.872Z,19.5
2016-09-03T01:23:35.867Z,19.5
2016-09-03T01:23:45.864Z,19.5
2016-09-03T01:23:55.858Z,19.6
2016-09-03T01:24:05.854Z,19.5
2016-09-03T01:24:15.850Z,19.6
2016-09-03T01:24:25.845Z,19.6
2016-09-03T01:24:35.841Z,19.5
2016-09-03T01:24:45.836Z,19.5
2016-09-03T01:24:55.831Z,19.6
2016-09-03T01:25:05.828Z,19.5
2016-09-03T01:25:15.828Z,19.6
2016-09-03T01:25:25.818Z,19.5
2016-09-03T01:25:35.814Z,19.6
2016-09-03T01:25:45.809Z,19.6
2016-09-03T01:25:55.805Z,19.5
2016-09-03T01:26:05.801Z,19.6
2016-09-03T01:26:15.794Z,19.5
2016-09-03T01:26:25.791Z,19.6
2016-09-03T01:26:35.788Z,19.5
2016-09-03T01:26:45.782Z,19.6
2016-09-03T01:26:55.777Z,19.6
2016-09-03T01:27:05.773Z,19.5
2016-09-03T01:27:15.768Z,19.6
2016-09-03T01:27:25.764Z,19.6
2016-09-03T01:27:35.760Z,19.6
2016-09-03T01:27:45.754Z,19.6
2016-09-03T01:27:55.749Z,19.5
2016-09-03T01:28:05.746Z,19.5
2016-09-03T01:28:15.741Z,19.6
2016-09-03T01:28:25.737Z,19.5
2016-09-03T01:28:35.732Z,19.6
2016-09-03T01:28:45.732Z,19.5
2016-09-03T01:28:55.722Z,19.5
2016-09-03T01:29:05.719Z,19.6
2016-09-03T01:29:15.714Z,19.6
2016-09-03T01:29:25.708Z,19.5
2016-09-03T01:29:35.707Z,19.6
2016-09-03T01:29:45.701Z,19.6
2016-09-03T01:29:55.696Z,19.5
2016-09-03T01:30:05.693Z,19.5
2016-09-03T01:30:15.687Z,19.5
2016-09-03T01:30:25.683Z,19.5
2016-09-03T01:30:35.678Z,19.5
2016-09-03T01:30:45.672Z,19.5
2016-09-03T01:30:55.669Z,19.4
2016-09-03T01:31:05.662Z,19.5
2016-09-03T01:31:15.660Z,19.5
2016-09-03T01:31:25.655Z,19.5
2016-09-03T01:31:35.650Z,19.6
2016-09-03T01:31:45.646Z,19.5
2016-09-03T01:31:55.642Z,19.6
2016-09-03T01:32:05.636Z,19.5
2016-09-03T01:32:15.632Z,19.5
2016-09-03T01:32:25.626Z,19.5
2016-09-03T01:32:35.622Z,19.5
2016-09-03T01:32:45.620Z,19.6
2016-09-03T01:32:55.614Z,19.5
2016-09-03T01:33:05.609Z,19.5
2016-09-03T01:33:15.605Z,19.5
2016-09-03T01:33:25.601Z,19.6
2016-09-03T01:33:35.597Z,19.6
2016-09-03T01:33:45.591Z,19.6
2016-09-03T01:33:55.587Z,19.6
2016-09-03T01:34:05.582Z,19.5
2016-09-03T01:34:15.579Z,19.5
2016-09-03T01:34:25.574Z,19.6
2016-09-03T01:34:35.568Z,19.5
2016-09-03T01:34:45.566Z,19.6
2016-09-03T01:34:55.561Z,19.5
2016-09-03T01:35:05.556Z,19.6
2016-09-03T01:35:15.551Z,19.5
2016-09-03T01:35:25.548Z,19.5
2016-09-03T01:35:35.541Z,19.6
2016-09-03T01:35:45.538Z,19.5
2016-09-03T01:35:55.532Z,19.6
2016-09-03T01:36:05.529Z,19.6
2016-09-03T01:36:15.524Z,19.6
2016-09-03T01:36:25.519Z,19.6
2016-09-03T01:36:35.515Z,19.6
2016-09-03T01:36:45.510Z,19.6
2016-09-03T01:36:55.505Z,19.6
2016-09-03T01:37:05.500Z,19.5
2016-09-03T01:37:15.496Z,19.5
2016-09-03T01:37:25.492Z,19.6
2016-09-03T01:37:35.487Z,19.5
2016-09-03T01:37:45.485Z,19.6
2016-09-03T01:37:55.480Z,19.5
2016-09-03T01:38:05.474Z,19.5
2016-09-03T01:38:15.469Z,19.6
2016-09-03T01:38:25.465Z,19.6
2016-09-03T01:38:35.459Z,19.6
2016-09-03T01:38:45.461Z,19.5
2016-09-03T01:38:55.451Z,19.6
2016-09-03T01:39:05.445Z,19.5
2016-09-03T01:39:15.443Z,19.5
2016-09-03T01:39:25.439Z,19.5
2016-09-03T01:39:35.433Z,19.5
2016-09-03T01:39:45.429Z,19.5
2016-09-03T01:39:55.423Z,19.5
2016-09-03T01:40:05.420Z,19.5
2016-09-03T01:40:15.415Z,19.5
2016-09-03T01:40:25.411Z,19.5
2016-09-03T01:40:35.406Z,19.5
2016-09-03T01:40:45.402Z,19.5
2016-09-03T01:40:55.396Z,19.5
2016-09-03T01:41:05.393Z,19.6
2016-09-03T01:41:15.388Z,19.6
2016-09-03T01:41:25.383Z,19.6
2016-09-03T01:41:35.381Z,19.6
2016-09-03T01:41:45.374Z,19.6
2016-09-03T01:41:55.369Z,19.5
2016-09-03T01:42:05.366Z,19.6
2016-09-03T01:42:15.360Z,19.6
2016-09-03T01:42:25.355Z,19.5
2016-09-03T01:42:35.351Z,19.5
2016-09-03T01:42:45.347Z,19.6
2016-09-03T01:42:55.345Z,19.5
2016-09-03T01:43:05.338Z,19.6
2016-09-03T01:43:15.333Z,19.5
2016-09-03T01:43:25.328Z,19.6
2016-09-03T01:43:35.323Z,19.6
2016-09-03T01:43:45.320Z,19.5
2016-09-03T01:43:55.317Z,19.6
2016-09-03T01:44:05.311Z,19.5
2016-09-03T01:44:15.307Z,19.6
2016-09-03T01:44:25.302Z,19.6
2016-09-03T01:44:35.297Z,19.6
2016-09-03T01:44:45.294Z,19.5
2016-09-03T01:44:55.288Z,19.5
2016-09-03T01:45:05.284Z,19.5
2016-09-03T01:45:15.278Z,19.6
2016-09-03T01:45:25.274Z,19.5
2016-09-03T01:45:35.270Z,19.5
2016-09-03T01:45:45.265Z,19.5
2016-09-03T01:45:55.261Z,19.5
2016-09-03T01:46:05.257Z,19.5
2016-09-03T01:46:15.252Z,19.5
2016-09-03T01:46:25.246Z,19.6
2016-09-03T01:46:35.241Z,19.5
2016-09-03T01:46:45.236Z,19.5
2016-09-03T01:46:55.234Z,19.5
2016-09-03T01:47:05.228Z,19.5
2016-09-03T01:47:15.224Z,19.5
2016-09-03T01:47:25.220Z,19.6
2016-09-03T01:47:35.214Z,19.5
2016-09-03T01:47:45.211Z,19.5
2016-09-03T01:47:55.206Z,19.5
2016-09-03T01:48:05.201Z,19.6
2016-09-03T01:48:15.197Z,19.5
2016-09-03T01:48:25.192Z,19.5
2016-09-03T01:48:35.188Z,19.5
2016-09-03T01:48:45.184Z,19.6
2016-09-03T01:48:55.179Z,19.5
2016-09-03T01:49:05.175Z,19.6
2016-09-03T01:49:15.171Z,19.6
2016-09-03T01:49:25.166Z,19.6
2016-09-03T01:49:35.160Z,19.6
2016-09-03T01:49:45.156Z,19.6
2016-09-03T01:49:55.151Z,19.5
2016-09-03T01:50:05.148Z,19.6
2016-09-03T01:50:15.142Z,19.5
2016-09-03T01:50:25.139Z,19.6
2016-09-03T01:50:35.133Z,19.5
2016-09-03T01:50:45.129Z,19.6
2016-09-03T01:50:55.125Z,19.6
2016-09-03T01:51:05.119Z,19.7
2016-09-03T01:51:15.114Z,19.7
2016-09-03T01:51:25.110Z,19.6
2016-09-03T01:51:35.106Z,19.6
2016-09-03T01:51:45.101Z,19.6
2016-09-03T01:51:55.095Z,19.7
2016-09-03T01:52:05.092Z,19.6
2016-09-03T01:52:15.087Z,19.7
2016-09-03T01:52:25.083Z,19.6
2016-09-03T01:52:35.079Z,19.6
2016-09-03T01:52:45.074Z,19.6
2016-09-03T01:52:55.069Z,19.6
2016-09-03T01:53:05.065Z,19.6
2016-09-03T01:53:15.060Z,19.5
2016-09-03T01:53:25.064Z,19.6
2016-09-03T01:53:35.052Z,19.6
2016-09-03T01:53:45.047Z,19.6
2016-09-03T01:53:55.043Z,19.5
2016-09-03T01:54:05.038Z,19.5
2016-09-03T01:54:15.034Z,19.6
2016-09-03T01:54:25.028Z,19.5
2016-09-03T01:54:35.025Z,19.6
2016-09-03T01:54:45.020Z,19.5
2016-09-03T01:54:55.015Z,19.6
2016-09-03T01:55:05.016Z,19.6
2016-09-03T01:55:15.006Z,19.6
2016-09-03T01:55:25.001Z,19.6
2016-09-03T01:55:34.997Z,19.6
2016-09-03T01:55:44.992Z,19.6
2016-09-03T01:55:54.987Z,19.6
2016-09-03T01:56:04.982Z,19.5
2016-09-03T01:56:14.977Z,19.6
2016-09-03T01:56:24.975Z,19.5
2016-09-03T01:56:34.970Z,19.6
2016-09-03T01:56:44.965Z,19.5
2016-09-03T01:56:54.958Z,19.6
2016-09-03T01:57:04.956Z,19.5
2016-09-03T01:57:14.952Z,19.5
2016-09-03T01:57:24.947Z,19.6
2016-09-03T01:57:34.942Z,19.6
2016-09-03T01:57:44.937Z,19.5
2016-09-03T01:57:54.933Z,19.5
2016-09-03T01:58:04.930Z,19.5
2016-09-03T01:58:14.923Z,19.5
2016-09-03T01:58:24.921Z,19.5
2016-09-03T01:58:34.916Z,19.5
2016-09-03T01:58:44.911Z,19.5
2016-09-03T01:58:54.906Z,19.5
2016-09-03T01:59:04.902Z,19.5
2016-09-03T01:59:14.896Z,19.5
2016-09-03T01:59:24.894Z,19.5
2016-09-03T01:59:34.887Z,19.5
2016-09-03T01:59:44.883Z,19.4
2016-09-03T01:59:54.880Z,19.5
2016-09-03T02:00:04.875Z,19.5
2016-09-03T02:00:14.870Z,19.5
2016-09-03T02:00:24.865Z,19.5
2016-09-03T02:00:34.861Z,19.4
2016-09-03T02:00:44.855Z,19.5
2016-09-03T02:00:54.850Z,19.5
2016-09-03T02:01:04.847Z,19.5
2016-09-03T02:01:14.842Z,19.4
2016-09-03T02:01:24.837Z,19.5
2016-09-03T02:01:34.834Z,19.5
2016-09-03T02:01:44.828Z,19.5
2016-09-03T02:01:54.824Z,19.5
2016-09-03T02:02:04.820Z,19.5
2016-09-03T02:02:14.814Z,19.5
2016-09-03T02:02:24.810Z,19.4
2016-09-03T02:02:34.805Z,19.4
2016-09-03T02:02:44.801Z,19.5
2016-09-03T02:02:54.797Z,19.4
2016-09-03T02:03:04.792Z,19.4
2016-09-03T02:03:14.788Z,19.5
2016-09-03T02:03:24.785Z,19.4
2016-09-03T02:03:34.777Z,19.5
2016-09-03T02:03:44.774Z,19.4
2016-09-03T02:03:54.769Z,19.4
2016-09-03T02:04:04.764Z,19.5
2016-09-03T02:04:14.760Z,19.4
2016-09-03T02:04:24.754Z,19.4
2016-09-03T02:04:34.769Z,19.4
2016-09-03T02:04:44.751Z,19.4
2016-09-03T02:04:54.742Z,19.4
2016-09-03T02:05:04.738Z,19.4
2016-09-03T02:05:14.732Z,19.4
2016-09-03T02:05:24.729Z,19.4
2016-09-03T02:05:34.737Z,19.4
2016-09-03T02:05:44.719Z,19.4
2016-09-03T02:05:54.715Z,19.4
2016-09-03T02:06:04.711Z,19.4
2016-09-03T02:06:14.706Z,19.4
2016-09-03T02:06:24.700Z,19.4
2016-09-03T02:06:34.696Z,19.4
2016-09-03T02:06:44.692Z,19.3
2016-09-03T02:06:54.687Z,19.3
2016-09-03T02:07:04.682Z,19.4
2016-09-03T02:07:14.679Z,19.3
2016-09-03T02:07:24.674Z,19.3
2016-09-03T02:07:34.670Z,19.4
2016-09-03T02:07:44.663Z,19.3
2016-09-03T02:07:54.660Z,19.4
2016-09-03T02:08:04.657Z,19.4
2016-09-03T02:08:14.652Z,19.3
2016-09-03T02:08:24.645Z,19.4
2016-09-03T02:08:34.642Z,19.4
2016-09-03T02:08:44.638Z,19.4
2016-09-03T02:08:54.633Z,19.3
2016-09-03T02:09:04.628Z,19.4
2016-09-03T02:09:14.629Z,19.4
2016-09-03T02:09:24.619Z,19.3
2016-09-03T02:09:34.616Z,19.3
2016-09-03T02:09:44.612Z,19.3
2016-09-03T02:09:54.607Z,19.3
2016-09-03T02:10:04.601Z,19.3
2016-09-03T02:10:14.598Z,19.3
2016-09-03T02:10:24.592Z,19.3
2016-09-03T02:10:34.587Z,19.3
2016-09-03T02:10:44.589Z,19.3
2016-09-03T02:10:54.578Z,19.3
2016-09-03T02:11:04.573Z,19.3
2016-09-03T02:11:14.569Z,19.3
2016-09-03T02:11:24.564Z,19.3
2016-09-03T02:11:34.560Z,19.3
2016-09-03T02:11:44.554Z,19.4
2016-09-03T02:11:54.551Z,19.3
2016-09-03T02:12:04.547Z,19.3
2016-09-03T02:12:14.553Z,19.3
2016-09-03T02:12:24.537Z,19.3
2016-09-03T02:12:34.533Z,19.3
2016-09-03T02:12:44.529Z,19.3
2016-09-03T02:12:54.525Z,19.4
2016-09-03T02:13:04.519Z,19.3
2016-09-03T02:13:14.514Z,19.3
2016-09-03T02:13:24.509Z,19.4
2016-09-03T02:13:34.507Z,19.4